sensor_id;sensor_type;location;lat;lon;timestamp;pressure;altitude;pressure_sealevel;temperature;humidity
72038;BME280;59900;50.788;12.904;2024-02-21T00:01:47;98117.38;;;6.43;88.06
72038;BME280;59900;50.788;12.904;2024-02-21T00:04:12;98118.16;;;6.43;88.02
72038;BME280;59900;50.788;12.904;2024-02-21T00:06:37;98108.72;;;6.42;88.15
72038;BME280;59900;50.788;12.904;2024-02-21T00:09:02;98106.41;;;6.39;87.95
72038;BME280;59900;50.788;12.904;2024-02-21T00:11:28;98102.81;;;6.40;87.81
72038;BME280;59900;50.788;12.904;2024-02-21T00:13:53;98094.97;;;6.40;88.31
72038;BME280;59900;50.788;12.904;2024-02-21T00:16:19;98096.78;;;6.40;87.94
72038;BME280;59900;50.788;12.904;2024-02-21T00:18:44;98098.41;;;6.41;87.77
72038;BME280;59900;50.788;12.904;2024-02-21T00:21:09;98089.09;;;6.38;88.22
72038;BME280;59900;50.788;12.904;2024-02-21T00:23:34;98099.72;;;6.37;88.09
72038;BME280;59900;50.788;12.904;2024-02-21T00:26:00;98100.50;;;6.37;88.08
72038;BME280;59900;50.788;12.904;2024-02-21T00:28:25;98085.00;;;6.36;88.62
72038;BME280;59900;50.788;12.904;2024-02-21T00:30:50;98085.97;;;6.35;88.01
72038;BME280;59900;50.788;12.904;2024-02-21T00:33:18;98082.41;;;6.36;88.06
72038;BME280;59900;50.788;12.904;2024-02-21T00:35:43;98072.94;;;6.35;88.47
72038;BME280;59900;50.788;12.904;2024-02-21T00:38:08;98068.53;;;6.35;88.28
72038;BME280;59900;50.788;12.904;2024-02-21T00:40:34;98061.34;;;6.37;88.35
72038;BME280;59900;50.788;12.904;2024-02-21T00:43:00;98070.31;;;6.35;88.52
72038;BME280;59900;50.788;12.904;2024-02-21T00:45:25;98065.09;;;6.35;88.67
72038;BME280;59900;50.788;12.904;2024-02-21T00:47:50;98071.44;;;6.32;88.49
72038;BME280;59900;50.788;12.904;2024-02-21T00:50:15;98066.41;;;6.31;88.89
72038;BME280;59900;50.788;12.904;2024-02-21T00:52:41;98066.72;;;6.28;88.93
72038;BME280;59900;50.788;12.904;2024-02-21T00:55:06;98059.72;;;6.28;89.03
72038;BME280;59900;50.788;12.904;2024-02-21T00:57:32;98056.41;;;6.26;89.21
72038;BME280;59900;50.788;12.904;2024-02-21T00:59:57;98049.56;;;6.25;88.77
72038;BME280;59900;50.788;12.904;2024-02-21T01:02:22;98046.16;;;6.25;89.17
72038;BME280;59900;50.788;12.904;2024-02-21T01:04:48;98047.28;;;6.22;89.36
72038;BME280;59900;50.788;12.904;2024-02-21T01:07:13;98047.28;;;6.22;89.52
72038;BME280;59900;50.788;12.904;2024-02-21T01:09:38;98041.38;;;6.20;89.93
72038;BME280;59900;50.788;12.904;2024-02-21T01:12:03;98037.28;;;6.17;89.49
72038;BME280;59900;50.788;12.904;2024-02-21T01:14:29;98039.06;;;6.17;89.78
72038;BME280;59900;50.788;12.904;2024-02-21T01:16:54;98031.41;;;6.15;90.03
72038;BME280;59900;50.788;12.904;2024-02-21T01:19:19;98034.03;;;6.15;89.79
72038;BME280;59900;50.788;12.904;2024-02-21T01:21:44;98024.56;;;6.14;89.68
72038;BME280;59900;50.788;12.904;2024-02-21T01:24:10;98020.00;;;6.16;89.86
72038;BME280;59900;50.788;12.904;2024-02-21T01:26:35;98021.13;;;6.14;90.12
72038;BME280;59900;50.788;12.904;2024-02-21T01:29:00;98007.94;;;6.15;90.00
72038;BME280;59900;50.788;12.904;2024-02-21T01:31:25;98017.72;;;6.13;90.00
72038;BME280;59900;50.788;12.904;2024-02-21T01:33:51;98011.16;;;6.09;90.59
72038;BME280;59900;50.788;12.904;2024-02-21T01:36:16;98010.34;;;6.09;90.39
72038;BME280;59900;50.788;12.904;2024-02-21T01:38:41;98000.06;;;6.07;90.45
72038;BME280;59900;50.788;12.904;2024-02-21T01:41:06;97991.44;;;6.07;90.77
72038;BME280;59900;50.788;12.904;2024-02-21T01:43:32;98000.56;;;6.11;90.46
72038;BME280;59900;50.788;12.904;2024-02-21T01:45:57;97989.47;;;6.09;90.18
72038;BME280;59900;50.788;12.904;2024-02-21T01:48:23;97985.91;;;6.10;90.57
72038;BME280;59900;50.788;12.904;2024-02-21T01:50:49;97989.47;;;6.09;90.72
72038;BME280;59900;50.788;12.904;2024-02-21T01:53:18;97978.38;;;6.07;90.91
72038;BME280;59900;50.788;12.904;2024-02-21T01:55:48;97983.44;;;6.08;90.74
72038;BME280;59900;50.788;12.904;2024-02-21T01:58:14;97977.25;;;6.09;90.25
72038;BME280;59900;50.788;12.904;2024-02-21T02:00:41;97969.41;;;6.09;90.44
72038;BME280;59900;50.788;12.904;2024-02-21T02:03:08;97966.63;;;6.11;90.48
72038;BME280;59900;50.788;12.904;2024-02-21T02:05:35;97971.22;;;6.09;90.56
72038;BME280;59900;50.788;12.904;2024-02-21T02:08:00;97961.44;;;6.11;90.72
72038;BME280;59900;50.788;12.904;2024-02-21T02:10:25;97962.41;;;6.10;90.37
72038;BME280;59900;50.788;12.904;2024-02-21T02:12:52;97961.44;;;6.11;89.91
72038;BME280;59900;50.788;12.904;2024-02-21T02:15:17;97952.81;;;6.10;90.41
72038;BME280;59900;50.788;12.904;2024-02-21T02:17:42;97951.81;;;6.11;90.42
72038;BME280;59900;50.788;12.904;2024-02-21T02:20:08;97954.41;;;6.11;90.39
72038;BME280;59900;50.788;12.904;2024-02-21T02:22:35;97955.25;;;6.12;90.31
72038;BME280;59900;50.788;12.904;2024-02-21T02:25:02;97961.28;;;6.12;90.17
72038;BME280;59900;50.788;12.904;2024-02-21T02:27:28;97952.63;;;6.12;90.01
72038;BME280;59900;50.788;12.904;2024-02-21T02:29:53;97945.78;;;6.11;90.05
72038;BME280;59900;50.788;12.904;2024-02-21T02:32:18;97943.16;;;6.11;90.02
72038;BME280;59900;50.788;12.904;2024-02-21T02:34:43;97949.19;;;6.11;90.34
72038;BME280;59900;50.788;12.904;2024-02-21T02:37:09;97941.22;;;6.13;90.00
72038;BME280;59900;50.788;12.904;2024-02-21T02:39:34;97936.16;;;6.11;89.82
72038;BME280;59900;50.788;12.904;2024-02-21T02:41:59;97927.50;;;6.11;90.13
72038;BME280;59900;50.788;12.904;2024-02-21T02:44:25;97928.50;;;6.10;90.30
72038;BME280;59900;50.788;12.904;2024-02-21T02:46:50;97926.72;;;6.10;89.94
72038;BME280;59900;50.788;12.904;2024-02-21T02:49:15;97921.63;;;6.09;90.47
72038;BME280;59900;50.788;12.904;2024-02-21T02:51:42;97921.50;;;6.10;90.57
72038;BME280;59900;50.788;12.904;2024-02-21T02:54:07;97915.47;;;6.10;90.43
72038;BME280;59900;50.788;12.904;2024-02-21T02:56:32;97913.50;;;6.12;89.92
72038;BME280;59900;50.788;12.904;2024-02-21T02:58:58;97910.88;;;6.12;90.25
72038;BME280;59900;50.788;12.904;2024-02-21T03:01:23;97904.03;;;6.11;90.28
72038;BME280;59900;50.788;12.904;2024-02-21T03:03:48;97900.44;;;6.12;90.29
72038;BME280;59900;50.788;12.904;2024-02-21T03:06:13;97900.63;;;6.10;89.90
72038;BME280;59900;50.788;12.904;2024-02-21T03:08:39;97899.63;;;6.11;90.27
72038;BME280;59900;50.788;12.904;2024-02-21T03:11:05;97908.28;;;6.12;90.29
72038;BME280;59900;50.788;12.904;2024-02-21T03:13:30;97908.28;;;6.12;90.34
72038;BME280;59900;50.788;12.904;2024-02-21T03:15:55;97911.53;;;6.14;90.36
72038;BME280;59900;50.788;12.904;2024-02-21T03:18:20;97908.44;;;6.10;90.52
72038;BME280;59900;50.788;12.904;2024-02-21T03:20:46;97912.66;;;6.11;90.68
72038;BME280;59900;50.788;12.904;2024-02-21T03:23:11;97892.63;;;6.12;90.82
72038;BME280;59900;50.788;12.904;2024-02-21T03:25:36;97908.28;;;6.12;90.74
72038;BME280;59900;50.788;12.904;2024-02-21T03:28:01;97900.63;;;6.10;90.79
72038;BME280;59900;50.788;12.904;2024-02-21T03:30:27;97896.19;;;6.11;90.66
72038;BME280;59900;50.788;12.904;2024-02-21T03:32:52;97905.84;;;6.10;90.82
72038;BME280;59900;50.788;12.904;2024-02-21T03:35:17;97894.72;;;6.08;91.09
72038;BME280;59900;50.788;12.904;2024-02-21T03:37:44;97898.97;;;6.09;91.00
72038;BME280;59900;50.788;12.904;2024-02-21T03:40:10;97890.97;;;6.11;90.65
72038;BME280;59900;50.788;12.904;2024-02-21T03:42:35;97893.59;;;6.11;90.34
72038;BME280;59900;50.788;12.904;2024-02-21T03:45:01;97892.63;;;6.12;90.76
72038;BME280;59900;50.788;12.904;2024-02-21T03:47:26;97889.19;;;6.11;90.76
72038;BME280;59900;50.788;12.904;2024-02-21T03:49:51;97885.44;;;6.14;90.82
72038;BME280;59900;50.788;12.904;2024-02-21T03:52:16;97882.69;;;6.15;90.46
72038;BME280;59900;50.788;12.904;2024-02-21T03:54:42;97885.94;;;6.17;90.45
72038;BME280;59900;50.788;12.904;2024-02-21T03:57:07;97880.06;;;6.15;90.38
72038;BME280;59900;50.788;12.904;2024-02-21T03:59:32;97886.91;;;6.16;90.43
72038;BME280;59900;50.788;12.904;2024-02-21T04:01:58;97884.31;;;6.16;90.43
72038;BME280;59900;50.788;12.904;2024-02-21T04:04:24;97895.56;;;6.17;90.38
72038;BME280;59900;50.788;12.904;2024-02-21T04:06:50;97887.59;;;6.18;90.07
72038;BME280;59900;50.788;12.904;2024-02-21T04:09:15;97890.19;;;6.18;90.35
72038;BME280;59900;50.788;12.904;2024-02-21T04:11:41;97890.34;;;6.17;90.50
72038;BME280;59900;50.788;12.904;2024-02-21T04:14:06;97896.56;;;6.16;90.21
72038;BME280;59900;50.788;12.904;2024-02-21T04:16:32;97904.53;;;6.14;90.62
72038;BME280;59900;50.788;12.904;2024-02-21T04:18:57;97899.97;;;6.16;91.03
72038;BME280;59900;50.788;12.904;2024-02-21T04:21:23;97892.47;;;6.13;91.61
72038;BME280;59900;50.788;12.904;2024-02-21T04:23:48;97896.38;;;6.09;91.59
72038;BME280;59900;50.788;12.904;2024-02-21T04:26:13;97894.41;;;6.11;92.14
72038;BME280;59900;50.788;12.904;2024-02-21T04:28:38;97901.41;;;6.11;92.59
72038;BME280;59900;50.788;12.904;2024-02-21T04:31:04;97887.72;;;6.09;93.50
72038;BME280;59900;50.788;12.904;2024-02-21T04:33:29;97881.84;;;6.07;93.40
72038;BME280;59900;50.788;12.904;2024-02-21T04:35:54;97880.38;;;6.04;94.07
72038;BME280;59900;50.788;12.904;2024-02-21T04:38:20;97876.94;;;6.04;94.33
72038;BME280;59900;50.788;12.904;2024-02-21T04:40:45;97872.88;;;6.01;94.61
72038;BME280;59900;50.788;12.904;2024-02-21T04:43:10;97884.09;;;6.02;95.28
72038;BME280;59900;50.788;12.904;2024-02-21T04:45:36;97877.28;;;6.01;95.41
72038;BME280;59900;50.788;12.904;2024-02-21T04:48:01;97890.47;;;5.99;96.10
72038;BME280;59900;50.788;12.904;2024-02-21T04:50:26;97877.59;;;5.98;96.53
72038;BME280;59900;50.788;12.904;2024-02-21T04:52:52;97883.75;;;5.97;96.26
72038;BME280;59900;50.788;12.904;2024-02-21T04:55:17;97874.47;;;5.94;96.77
72038;BME280;59900;50.788;12.904;2024-02-21T04:57:43;97864.34;;;5.91;97.30
72038;BME280;59900;50.788;12.904;2024-02-21T05:00:08;97856.53;;;5.91;97.63
72038;BME280;59900;50.788;12.904;2024-02-21T05:02:34;97863.72;;;5.89;97.43
72038;BME280;59900;50.788;12.904;2024-02-21T05:04:59;97862.88;;;5.89;97.89
72038;BME280;59900;50.788;12.904;2024-02-21T05:07:24;97859.63;;;5.87;98.10
72038;BME280;59900;50.788;12.904;2024-02-21T05:09:50;97861.53;;;5.85;98.46
72038;BME280;59900;50.788;12.904;2024-02-21T05:12:16;97844.25;;;5.84;98.74
72038;BME280;59900;50.788;12.904;2024-02-21T05:14:41;97853.88;;;5.83;99.04
72038;BME280;59900;50.788;12.904;2024-02-21T05:17:06;97863.47;;;5.83;99.44
72038;BME280;59900;50.788;12.904;2024-02-21T05:19:31;97866.09;;;5.83;99.37
72038;BME280;59900;50.788;12.904;2024-02-21T05:21:58;97860.88;;;5.83;99.89
72038;BME280;59900;50.788;12.904;2024-02-21T05:24:23;97861.53;;;5.85;99.87
72038;BME280;59900;50.788;12.904;2024-02-21T05:26:48;97852.88;;;5.84;99.87
72038;BME280;59900;50.788;12.904;2024-02-21T05:29:14;97848.38;;;5.86;99.91
72038;BME280;59900;50.788;12.904;2024-02-21T05:31:54;97845.88;;;5.85;100.00
72038;BME280;59900;50.788;12.904;2024-02-21T05:34:21;97843.28;;;5.85;100.00
72038;BME280;59900;50.788;12.904;2024-02-21T05:36:46;97856.47;;;5.83;100.00
72038;BME280;59900;50.788;12.904;2024-02-21T05:39:13;97850.63;;;5.81;100.00
72038;BME280;59900;50.788;12.904;2024-02-21T05:41:39;97837.56;;;5.81;100.00
72038;BME280;59900;50.788;12.904;2024-02-21T05:44:04;97835.94;;;5.80;99.53
72038;BME280;59900;50.788;12.904;2024-02-21T05:46:30;97836.75;;;5.81;100.00
72038;BME280;59900;50.788;12.904;2024-02-21T05:48:55;97835.75;;;5.82;99.70
72038;BME280;59900;50.788;12.904;2024-02-21T05:51:20;97824.38;;;5.83;99.35
72038;BME280;59900;50.788;12.904;2024-02-21T05:53:45;97824.38;;;5.83;99.07
72038;BME280;59900;50.788;12.904;2024-02-21T05:56:11;97814.91;;;5.82;98.96
72038;BME280;59900;50.788;12.904;2024-02-21T05:58:37;97817.50;;;5.82;98.74
72038;BME280;59900;50.788;12.904;2024-02-21T06:01:03;97826.16;;;5.82;98.71
72038;BME280;59900;50.788;12.904;2024-02-21T06:03:29;97819.97;;;5.83;98.48
72038;BME280;59900;50.788;12.904;2024-02-21T06:05:54;97817.91;;;5.87;98.45
72038;BME280;59900;50.788;12.904;2024-02-21T06:08:19;97814.16;;;5.89;97.99
72038;BME280;59900;50.788;12.904;2024-02-21T06:10:45;97813.34;;;5.89;97.76
72038;BME280;59900;50.788;12.904;2024-02-21T06:13:10;97810.72;;;5.89;97.73
72038;BME280;59900;50.788;12.904;2024-02-21T06:15:36;97819.38;;;5.89;97.71
72038;BME280;59900;50.788;12.904;2024-02-21T06:18:01;97796.72;;;5.90;97.04
72038;BME280;59900;50.788;12.904;2024-02-21T06:20:26;97795.06;;;5.89;96.93
72038;BME280;59900;50.788;12.904;2024-02-21T06:22:51;97797.69;;;5.89;96.70
72038;BME280;59900;50.788;12.904;2024-02-21T06:25:17;97804.53;;;5.90;96.79
72038;BME280;59900;50.788;12.904;2024-02-21T06:27:42;97795.06;;;5.89;96.39
72038;BME280;59900;50.788;12.904;2024-02-21T06:30:08;97794.44;;;5.87;96.33
72038;BME280;59900;50.788;12.904;2024-02-21T06:32:34;97791.50;;;5.90;96.19
72038;BME280;59900;50.788;12.904;2024-02-21T06:34:59;97790.69;;;5.89;95.86
72038;BME280;59900;50.788;12.904;2024-02-21T06:37:26;97779.94;;;5.92;95.66
72038;BME280;59900;50.788;12.904;2024-02-21T06:39:52;97779.09;;;5.92;95.30
72038;BME280;59900;50.788;12.904;2024-02-21T06:42:17;97776.50;;;5.92;95.33
72038;BME280;59900;50.788;12.904;2024-02-21T06:44:44;97776.31;;;5.93;95.15
72038;BME280;59900;50.788;12.904;2024-02-21T06:47:09;97771.09;;;5.93;95.52
72038;BME280;59900;50.788;12.904;2024-02-21T06:49:34;97767.22;;;5.97;95.42
72038;BME280;59900;50.788;12.904;2024-02-21T06:51:59;97764.41;;;5.99;94.82
72038;BME280;59900;50.788;12.904;2024-02-21T06:54:25;97770.31;;;6.01;94.86
72038;BME280;59900;50.788;12.904;2024-02-21T06:56:50;97772.94;;;6.01;94.94
72038;BME280;59900;50.788;12.904;2024-02-21T06:59:15;97786.13;;;5.99;94.62
72038;BME280;59900;50.788;12.904;2024-02-21T07:01:45;97784.97;;;6.02;94.41
72038;BME280;59900;50.788;12.904;2024-02-21T07:04:10;97790.03;;;6.03;94.54
72038;BME280;59900;50.788;12.904;2024-02-21T07:06:36;97790.88;;;6.04;94.24
72038;BME280;59900;50.788;12.904;2024-02-21T07:09:01;97782.03;;;6.05;94.26
72038;BME280;59900;50.788;12.904;2024-02-21T07:11:26;97796.59;;;6.07;94.44
72038;BME280;59900;50.788;12.904;2024-02-21T07:13:52;97787.94;;;6.07;94.59
72038;BME280;59900;50.788;12.904;2024-02-21T07:16:17;97795.91;;;6.05;94.65
72038;BME280;59900;50.788;12.904;2024-02-21T07:18:42;97793.28;;;6.05;94.38
72038;BME280;59900;50.788;12.904;2024-02-21T07:21:08;97799.97;;;6.08;94.76
72038;BME280;59900;50.788;12.904;2024-02-21T07:23:33;97802.44;;;6.09;94.29
72038;BME280;59900;50.788;12.904;2024-02-21T07:25:58;97799.66;;;6.11;94.38
72038;BME280;59900;50.788;12.904;2024-02-21T07:28:23;97808.47;;;6.10;94.65
72038;BME280;59900;50.788;12.904;2024-02-21T07:30:49;97807.50;;;6.11;94.79
72038;BME280;59900;50.788;12.904;2024-02-21T07:33:14;97812.56;;;6.12;95.29
72038;BME280;59900;50.788;12.904;2024-02-21T07:35:39;97808.63;;;6.16;94.60
72038;BME280;59900;50.788;12.904;2024-02-21T07:38:07;97803.28;;;6.18;94.59
72038;BME280;59900;50.788;12.904;2024-02-21T07:40:33;97819.25;;;6.23;94.81
72038;BME280;59900;50.788;12.904;2024-02-21T07:42:58;97822.03;;;6.30;94.54
72038;BME280;59900;50.788;12.904;2024-02-21T07:45:24;97821.72;;;6.33;94.38
72038;BME280;59900;50.788;12.904;2024-02-21T07:47:50;97824.00;;;6.36;94.29
72038;BME280;59900;50.788;12.904;2024-02-21T07:50:16;97821.88;;;6.39;94.28
72038;BME280;59900;50.788;12.904;2024-02-21T07:52:42;97798.41;;;6.39;94.48
72038;BME280;59900;50.788;12.904;2024-02-21T07:55:08;97800.19;;;6.39;94.29
72038;BME280;59900;50.788;12.904;2024-02-21T07:57:35;97804.25;;;6.41;94.16
72038;BME280;59900;50.788;12.904;2024-02-21T08:00:00;97793.50;;;6.44;93.98
72038;BME280;59900;50.788;12.904;2024-02-21T08:02:26;97802.78;;;6.47;94.14
72038;BME280;59900;50.788;12.904;2024-02-21T08:04:51;97800.97;;;6.55;94.18
72038;BME280;59900;50.788;12.904;2024-02-21T08:07:16;97803.78;;;6.54;93.50
72038;BME280;59900;50.788;12.904;2024-02-21T08:09:41;97801.81;;;6.56;93.26
72038;BME280;59900;50.788;12.904;2024-02-21T08:12:07;97813.56;;;6.60;93.14
72038;BME280;59900;50.788;12.904;2024-02-21T08:14:32;97829.06;;;6.61;92.70
72038;BME280;59900;50.788;12.904;2024-02-21T08:16:57;97830.06;;;6.60;91.94
72038;BME280;59900;50.788;12.904;2024-02-21T08:19:24;97806.69;;;6.59;92.15
72038;BME280;59900;50.788;12.904;2024-02-21T08:21:49;97801.97;;;6.54;91.44
72038;BME280;59900;50.788;12.904;2024-02-21T08:24:15;97808.00;;;6.55;91.43
72038;BME280;59900;50.788;12.904;2024-02-21T08:26:43;97782.72;;;6.55;91.45
72038;BME280;59900;50.788;12.904;2024-02-21T08:29:10;97781.75;;;6.56;91.16
72038;BME280;59900;50.788;12.904;2024-02-21T08:31:35;97780.91;;;6.56;91.36
72038;BME280;59900;50.788;12.904;2024-02-21T08:34:00;97761.16;;;6.61;91.32
72038;BME280;59900;50.788;12.904;2024-02-21T08:36:33;97756.59;;;6.63;90.95
72038;BME280;59900;50.788;12.904;2024-02-21T08:38:59;97755.28;;;6.67;90.62
72038;BME280;59900;50.788;12.904;2024-02-21T08:41:24;97738.47;;;6.70;90.19
72038;BME280;59900;50.788;12.904;2024-02-21T08:43:51;97743.19;;;6.66;89.28
72038;BME280;59900;50.788;12.904;2024-02-21T08:46:16;97740.91;;;6.71;89.09
72038;BME280;59900;50.788;12.904;2024-02-21T08:48:43;97736.63;;;6.78;89.54
72038;BME280;59900;50.788;12.904;2024-02-21T08:51:08;97736.63;;;6.78;87.49
72038;BME280;59900;50.788;12.904;2024-02-21T08:53:33;97747.44;;;6.84;87.72
72038;BME280;59900;50.788;12.904;2024-02-21T08:55:58;97743.19;;;6.83;86.88
72038;BME280;59900;50.788;12.904;2024-02-21T08:58:24;97745.44;;;6.86;86.90
72038;BME280;59900;50.788;12.904;2024-02-21T09:00:51;97758.50;;;6.86;86.49
72038;BME280;59900;50.788;12.904;2024-02-21T09:03:17;97755.06;;;6.93;86.46
72038;BME280;59900;50.788;12.904;2024-02-21T09:05:44;97775.13;;;7.01;86.42
72038;BME280;59900;50.788;12.904;2024-02-21T09:08:10;97759.94;;;7.04;85.81
72038;BME280;59900;50.788;12.904;2024-02-21T09:10:35;97764.31;;;7.12;85.26
72038;BME280;59900;50.788;12.904;2024-02-21T09:13:00;97765.59;;;7.24;85.23
72038;BME280;59900;50.788;12.904;2024-02-21T09:15:28;97773.72;;;7.29;84.19
72038;BME280;59900;50.788;12.904;2024-02-21T09:17:53;97762.44;;;7.28;83.80
72038;BME280;59900;50.788;12.904;2024-02-21T09:20:19;97763.31;;;7.21;82.45
72038;BME280;59900;50.788;12.904;2024-02-21T09:22:44;97754.50;;;7.14;82.34
72038;BME280;59900;50.788;12.904;2024-02-21T09:25:09;97764.13;;;7.13;82.66
72038;BME280;59900;50.788;12.904;2024-02-21T09:27:37;97762.22;;;7.07;82.55
72038;BME280;59900;50.788;12.904;2024-02-21T09:30:02;97758.13;;;7.05;82.47
72038;BME280;59900;50.788;12.904;2024-02-21T09:32:29;97754.06;;;7.02;83.03
72038;BME280;59900;50.788;12.904;2024-02-21T09:34:54;97753.91;;;7.04;83.30
72038;BME280;59900;50.788;12.904;2024-02-21T09:37:20;97745.72;;;7.07;83.38
72038;BME280;59900;50.788;12.904;2024-02-21T09:39:45;97752.22;;;7.11;83.39
72038;BME280;59900;50.788;12.904;2024-02-21T09:42:14;97751.59;;;7.09;82.68
72038;BME280;59900;50.788;12.904;2024-02-21T09:44:43;97753.69;;;7.13;83.39
72038;BME280;59900;50.788;12.904;2024-02-21T09:47:17;97755.13;;;7.24;83.41
72038;BME280;59900;50.788;12.904;2024-02-21T09:49:44;97761.00;;;7.26;83.11
72038;BME280;59900;50.788;12.904;2024-02-21T09:52:12;97771.44;;;7.26;83.15
72038;BME280;59900;50.788;12.904;2024-02-21T09:54:39;97761.00;;;7.26;83.09
72038;BME280;59900;50.788;12.904;2024-02-21T09:57:07;97770.19;;;7.22;82.89
72038;BME280;59900;50.788;12.904;2024-02-21T09:59:33;97778.66;;;7.24;83.33
72038;BME280;59900;50.788;12.904;2024-02-21T10:01:58;97766.06;;;7.27;83.12
72038;BME280;59900;50.788;12.904;2024-02-21T10:04:25;97763.13;;;7.30;83.47
72038;BME280;59900;50.788;12.904;2024-02-21T10:06:51;97761.44;;;7.38;83.67
72038;BME280;59900;50.788;12.904;2024-02-21T10:09:20;97748.16;;;7.47;83.35
72038;BME280;59900;50.788;12.904;2024-02-21T10:11:46;97752.38;;;7.56;82.83
72038;BME280;59900;50.788;12.904;2024-02-21T10:14:11;97760.50;;;7.61;81.03
72038;BME280;59900;50.788;12.904;2024-02-21T10:16:36;97763.88;;;7.70;81.23
72038;BME280;59900;50.788;12.904;2024-02-21T10:19:02;97754.72;;;7.74;80.91
72038;BME280;59900;50.788;12.904;2024-02-21T10:21:28;97754.19;;;7.78;80.25
72038;BME280;59900;50.788;12.904;2024-02-21T10:23:54;97748.31;;;7.76;80.07
72038;BME280;59900;50.788;12.904;2024-02-21T10:26:20;97739.84;;;7.74;79.85
72038;BME280;59900;50.788;12.904;2024-02-21T10:28:47;97754.53;;;7.75;79.59
72038;BME280;59900;50.788;12.904;2024-02-21T10:31:31;97748.31;;;7.76;79.46
72038;BME280;59900;50.788;12.904;2024-02-21T10:33:57;97738.03;;;7.75;79.62
72038;BME280;59900;50.788;12.904;2024-02-21T10:36:23;97746.47;;;7.85;79.87
72038;BME280;59900;50.788;12.904;2024-02-21T10:38:52;97724.50;;;7.94;79.63
72038;BME280;59900;50.788;12.904;2024-02-21T10:41:19;97719.03;;;8.04;78.80
72038;BME280;59900;50.788;12.904;2024-02-21T10:43:49;97717.16;;;8.12;77.25
72038;BME280;59900;50.788;12.904;2024-02-21T10:46:18;97706.06;;;8.25;76.62
72038;BME280;59900;50.788;12.904;2024-02-21T10:48:44;97719.16;;;8.25;75.64
72038;BME280;59900;50.788;12.904;2024-02-21T10:51:15;97704.44;;;8.32;75.88
72038;BME280;59900;50.788;12.904;2024-02-21T10:53:51;97710.88;;;8.44;76.40
72038;BME280;59900;50.788;12.904;2024-02-21T10:56:29;97698.41;;;8.46;75.54
72038;BME280;59900;50.788;12.904;2024-02-21T10:58:58;97699.22;;;8.47;75.00
72038;BME280;59900;50.788;12.904;2024-02-21T11:01:23;97699.47;;;8.37;75.24
72038;BME280;59900;50.788;12.904;2024-02-21T11:03:53;97705.75;;;8.28;75.66
72038;BME280;59900;50.788;12.904;2024-02-21T11:06:20;97687.31;;;8.21;76.87
72038;BME280;59900;50.788;12.904;2024-02-21T11:08:47;97683.88;;;8.21;76.59
72038;BME280;59900;50.788;12.904;2024-02-21T11:11:13;97673.34;;;8.29;75.31
72038;BME280;59900;50.788;12.904;2024-02-21T11:13:44;97672.53;;;8.28;75.89
72038;BME280;59900;50.788;12.904;2024-02-21T11:16:20;97683.13;;;8.35;76.67
72038;BME280;59900;50.788;12.904;2024-02-21T11:18:47;97673.28;;;8.37;76.27
72038;BME280;59900;50.788;12.904;2024-02-21T11:21:12;97659.31;;;8.44;76.24
72038;BME280;59900;50.788;12.904;2024-02-21T11:23:38;97657.06;;;8.56;75.06
72038;BME280;59900;50.788;12.904;2024-02-21T11:26:04;97656.34;;;8.62;75.85
72038;BME280;59900;50.788;12.904;2024-02-21T11:28:30;97652.53;;;8.65;75.99
72038;BME280;59900;50.788;12.904;2024-02-21T11:31:06;97641.88;;;8.66;76.41
72038;BME280;59900;50.788;12.904;2024-02-21T11:33:33;97644.13;;;8.69;75.97
72038;BME280;59900;50.788;12.904;2024-02-21T11:35:58;97629.69;;;8.73;75.83
72038;BME280;59900;50.788;12.904;2024-02-21T11:38:23;97626.94;;;8.81;74.75
72038;BME280;59900;50.788;12.904;2024-02-21T11:40:50;97620.34;;;8.85;74.51
72038;BME280;59900;50.788;12.904;2024-02-21T11:43:15;97614.56;;;8.90;74.73
72038;BME280;59900;50.788;12.904;2024-02-21T11:45:41;97604.53;;;8.93;72.55
72038;BME280;59900;50.788;12.904;2024-02-21T11:48:06;97599.00;;;9.03;74.18
72038;BME280;59900;50.788;12.904;2024-02-21T11:50:34;97597.44;;;9.09;73.10
72038;BME280;59900;50.788;12.904;2024-02-21T11:52:59;97596.59;;;9.23;74.53
72038;BME280;59900;50.788;12.904;2024-02-21T11:55:24;97582.75;;;9.29;72.45
72038;BME280;59900;50.788;12.904;2024-02-21T11:57:50;97586.19;;;9.29;72.31
72038;BME280;59900;50.788;12.904;2024-02-21T12:00:17;97579.75;;;9.32;72.05
72038;BME280;59900;50.788;12.904;2024-02-21T12:02:44;97571.38;;;9.43;71.81
72038;BME280;59900;50.788;12.904;2024-02-21T12:05:10;97561.75;;;9.50;71.70
72038;BME280;59900;50.788;12.904;2024-02-21T12:07:36;97548.28;;;9.53;70.17
72038;BME280;59900;50.788;12.904;2024-02-21T12:10:07;97552.13;;;9.57;70.39
72038;BME280;59900;50.788;12.904;2024-02-21T12:12:34;97523.09;;;9.58;69.53
72038;BME280;59900;50.788;12.904;2024-02-21T12:15:01;97542.44;;;9.57;68.67
72038;BME280;59900;50.788;12.904;2024-02-21T12:17:26;97535.78;;;9.55;66.59
72038;BME280;59900;50.788;12.904;2024-02-21T12:19:52;97531.09;;;9.50;66.14
72038;BME280;59900;50.788;12.904;2024-02-21T12:22:20;97525.88;;;9.57;64.56
72038;BME280;59900;50.788;12.904;2024-02-21T12:24:45;97519.31;;;9.68;66.12
72038;BME280;59900;50.788;12.904;2024-02-21T12:27:13;97517.53;;;9.75;66.98
72038;BME280;59900;50.788;12.904;2024-02-21T12:29:38;97518.09;;;9.91;67.29
72038;BME280;59900;50.788;12.904;2024-02-21T12:32:04;97515.53;;;10.04;66.01
72038;BME280;59900;50.788;12.904;2024-02-21T12:34:29;97506.66;;;10.05;65.07
72038;BME280;59900;50.788;12.904;2024-02-21T12:36:57;97507.34;;;10.14;67.08
72038;BME280;59900;50.788;12.904;2024-02-21T12:39:23;97504.75;;;10.21;66.61
72038;BME280;59900;50.788;12.904;2024-02-21T12:41:48;97500.94;;;10.23;65.33
72038;BME280;59900;50.788;12.904;2024-02-21T12:44:13;97498.09;;;10.18;63.98
72038;BME280;59900;50.788;12.904;2024-02-21T12:46:39;97480.31;;;10.20;64.09
72038;BME280;59900;50.788;12.904;2024-02-21T12:49:05;97481.94;;;10.21;63.92
72038;BME280;59900;50.788;12.904;2024-02-21T12:51:31;97480.97;;;10.29;63.93
72038;BME280;59900;50.788;12.904;2024-02-21T12:53:56;97486.03;;;10.37;62.28